createdAt,value
2018-05-25T00:02:21.770Z,17.20
2018-05-25T00:04:48.335Z,17.20
2018-05-25T00:07:15.666Z,17.20
2018-05-25T00:09:42.982Z,17.20
2018-05-25T00:12:09.624Z,17.10
2018-05-25T00:14:36.168Z,17.20
2018-05-25T00:17:02.800Z,17.20
2018-05-25T00:19:29.316Z,17.10
2018-05-25T00:21:55.869Z,17.10
2018-05-25T00:24:22.459Z,17.10
2018-05-25T00:26:49.824Z,17.00
2018-05-25T00:29:17.146Z,17.00
2018-05-25T00:31:44.478Z,16.90
2018-05-25T00:34:11.082Z,16.90
2018-05-25T00:36:38.235Z,16.90
2018-05-25T00:39:04.786Z,16.80
2018-05-25T00:41:31.389Z,16.80
2018-05-25T00:43:58.724Z,16.70
2018-05-25T00:46:25.304Z,16.60
2018-05-25T00:48:51.842Z,16.60
2018-05-25T00:51:18.374Z,16.50
2018-05-25T00:53:44.984Z,16.40
2018-05-25T00:56:11.711Z,16.40
2018-05-25T00:58:38.263Z,16.30
2018-05-25T01:01:05.570Z,16.20
2018-05-25T01:03:33.043Z,16.20
2018-05-25T01:05:59.607Z,16.10
2018-05-25T01:08:26.948Z,16.10
2018-05-25T01:10:54.318Z,16.00
2018-05-25T01:13:20.927Z,16.00
2018-05-25T01:15:47.618Z,16.00
2018-05-25T01:18:14.158Z,15.90
2018-05-25T01:20:40.789Z,15.90
2018-05-25T01:23:07.369Z,15.80
2018-05-25T01:25:33.939Z,15.80
2018-05-25T01:28:01.239Z,15.70
2018-05-25T01:30:27.808Z,15.70
2018-05-25T01:32:54.379Z,15.70
2018-05-25T01:35:20.997Z,15.70
2018-05-25T01:37:48.355Z,15.60
2018-05-25T01:40:15.625Z,15.60
2018-05-25T01:42:42.207Z,15.60
2018-05-25T01:45:10.270Z,15.60
2018-05-25T01:47:36.979Z,15.60
2018-05-25T01:50:03.606Z,15.60
2018-05-25T01:52:30.160Z,15.50
2018-05-25T01:54:56.746Z,15.50
2018-05-25T01:57:24.034Z,15.40
2018-05-25T01:59:50.617Z,15.40
2018-05-25T02:02:17.137Z,15.30
2018-05-25T02:04:44.158Z,15.30
2018-05-25T02:07:10.693Z,15.30
2018-05-25T02:09:37.253Z,15.20
2018-05-25T02:12:03.941Z,15.20
2018-05-25T02:14:31.271Z,15.10
2018-05-25T02:16:58.008Z,15.10
2018-05-25T02:19:24.879Z,15.00
2018-05-25T02:21:52.235Z,14.90
2018-05-25T02:24:19.506Z,14.90
2018-05-25T02:26:46.130Z,14.90
2018-05-25T02:29:12.702Z,14.90
2018-05-25T02:31:39.293Z,14.90
2018-05-25T02:34:06.606Z,14.80
2018-05-25T02:36:33.289Z,14.80
2018-05-25T02:39:00.565Z,14.80
2018-05-25T02:41:27.178Z,14.80
2018-05-25T02:43:53.814Z,14.80
2018-05-25T02:46:20.374Z,14.80
2018-05-25T02:48:46.990Z,14.80
2018-05-25T02:51:14.980Z,14.80
2018-05-25T02:53:41.526Z,14.80
2018-05-25T02:56:08.077Z,14.80
2018-05-25T02:58:34.649Z,14.80
2018-05-25T03:01:01.969Z,14.80
2018-05-25T03:03:28.586Z,14.80
2018-05-25T03:05:55.247Z,14.90
2018-05-25T03:08:21.893Z,14.90
2018-05-25T03:10:48.578Z,15.00
2018-05-25T03:13:15.175Z,15.00
2018-05-25T03:15:41.812Z,15.10
2018-05-25T03:18:08.385Z,15.20
2018-05-25T03:20:34.933Z,15.20
2018-05-25T03:23:01.536Z,15.30
2018-05-25T03:25:29.547Z,15.40
2018-05-25T03:27:56.517Z,15.40
2018-05-25T03:30:23.080Z,15.50
2018-05-25T03:32:49.648Z,15.50
2018-05-25T03:35:16.948Z,15.60
2018-05-25T03:37:43.626Z,15.60
2018-05-25T03:40:10.953Z,15.70
2018-05-25T03:42:37.491Z,15.70
2018-05-25T03:45:04.198Z,15.70
2018-05-25T03:47:30.862Z,15.80
2018-05-25T03:49:57.417Z,15.80
2018-05-25T03:52:25.628Z,15.80
2018-05-25T03:54:52.222Z,15.80
2018-05-25T03:57:20.238Z,15.80
2018-05-25T03:59:59.250Z,15.90
2018-05-25T04:02:25.843Z,15.90
2018-05-25T04:04:52.406Z,15.90
2018-05-25T04:07:20.198Z,16.00
2018-05-25T04:09:46.814Z,16.00
2018-05-25T04:12:14.095Z,16.00
2018-05-25T04:14:40.727Z,16.00
2018-05-25T04:17:07.268Z,16.10
2018-05-25T04:19:33.877Z,16.10
2018-05-25T04:22:00.513Z,16.10
2018-05-25T04:24:27.995Z,16.20
2018-05-25T04:26:54.551Z,16.20
2018-05-25T04:29:21.117Z,16.30
2018-05-25T04:31:48.636Z,16.30
2018-05-25T04:34:15.443Z,16.30
2018-05-25T04:36:42.733Z,16.40
2018-05-25T04:39:09.301Z,16.40
2018-05-25T04:41:35.855Z,16.40
2018-05-25T04:44:03.218Z,16.60
2018-05-25T04:46:30.577Z,16.60
2018-05-25T04:48:58.337Z,16.70
2018-05-25T04:51:25.622Z,16.70
2018-05-25T04:53:52.165Z,16.70
2018-05-25T04:56:18.880Z,16.70
2018-05-25T04:58:45.432Z,16.70
2018-05-25T05:01:11.977Z,16.70
2018-05-25T05:03:38.568Z,16.70
2018-05-25T05:06:05.894Z,16.90
2018-05-25T05:08:32.456Z,16.90
2018-05-25T05:10:59.925Z,16.90
2018-05-25T05:13:27.195Z,16.90
2018-05-25T05:15:53.801Z,16.90
2018-05-25T05:18:21.130Z,17.20
2018-05-25T05:20:47.655Z,17.20
2018-05-25T05:23:14.258Z,17.30
2018-05-25T05:25:40.791Z,17.50
2018-05-25T05:28:07.374Z,17.60
2018-05-25T05:30:33.982Z,17.90
2018-05-25T05:33:00.533Z,18.20
2018-05-25T05:35:27.134Z,18.50
2018-05-25T05:38:00.566Z,18.70
2018-05-25T05:40:27.221Z,18.70
2018-05-25T05:42:53.815Z,18.90
2018-05-25T05:45:20.383Z,19.10
2018-05-25T05:47:46.950Z,19.40
2018-05-25T05:50:14.230Z,19.70
2018-05-25T05:52:40.826Z,19.70
2018-05-25T05:55:07.835Z,19.80
2018-05-25T05:57:34.493Z,20.10
2018-05-25T06:00:01.801Z,20.50
2018-05-25T06:02:28.421Z,20.50
2018-05-25T06:04:55.726Z,20.60
2018-05-25T06:07:22.640Z,20.60
2018-05-25T06:09:49.177Z,20.70
2018-05-25T06:12:15.742Z,20.80
2018-05-25T06:14:43.989Z,21.10
2018-05-25T06:17:10.601Z,21.10
2018-05-25T06:19:37.169Z,21.30
2018-05-25T06:22:04.305Z,21.40
2018-05-25T06:24:30.861Z,21.40
2018-05-25T06:26:57.443Z,21.70
2018-05-25T06:29:24.794Z,21.70
2018-05-25T06:31:51.316Z,21.70
2018-05-25T06:34:17.910Z,21.90
2018-05-25T06:36:44.530Z,22.20
2018-05-25T06:39:11.798Z,22.50
2018-05-25T06:41:38.380Z,22.50
2018-05-25T06:44:05.703Z,22.70
2018-05-25T06:46:32.260Z,22.70
2018-05-25T06:48:58.877Z,22.80
2018-05-25T06:51:25.429Z,22.90
2018-05-25T06:53:52.029Z,23.10
2018-05-25T06:56:18.592Z,23.20
2018-05-25T06:58:45.189Z,23.40
2018-05-25T07:01:12.486Z,23.40
2018-05-25T07:03:39.060Z,23.40
2018-05-25T07:06:06.425Z,23.20
2018-05-25T07:08:33.704Z,23.10
2018-05-25T07:11:00.723Z,23.10
2018-05-25T07:13:28.024Z,23.30
2018-05-25T07:15:54.638Z,23.30
2018-05-25T07:18:21.253Z,23.80
2018-05-25T07:20:48.603Z,24.20
2018-05-25T07:23:16.289Z,24.10
2018-05-25T07:25:42.834Z,24.10
2018-05-25T07:28:09.391Z,24.10
2018-05-25T07:30:36.075Z,24.10
2018-05-25T07:33:03.127Z,24.10
2018-05-25T07:35:29.726Z,24.20
2018-05-25T07:37:56.304Z,24.20
2018-05-25T07:40:23.061Z,24.20
2018-05-25T07:42:49.609Z,24.60
2018-05-25T07:45:16.153Z,24.50
2018-05-25T07:47:42.727Z,24.50
2018-05-25T07:50:10.047Z,24.80
2018-05-25T07:52:36.681Z,24.80
2018-05-25T07:55:03.229Z,25.00
2018-05-25T07:57:29.775Z,25.20
2018-05-25T07:59:56.378Z,25.50
2018-05-25T08:02:22.942Z,25.50
2018-05-25T08:04:49.498Z,25.60
2018-05-25T08:07:16.867Z,25.60
2018-05-25T08:09:43.415Z,25.60
2018-05-25T08:12:09.989Z,25.80
2018-05-25T08:14:36.567Z,25.90
2018-05-25T08:17:03.914Z,26.00
2018-05-25T08:19:31.194Z,26.10
2018-05-25T08:21:57.891Z,26.10
2018-05-25T08:24:25.198Z,25.90
2018-05-25T08:26:51.770Z,25.90
2018-05-25T08:29:18.315Z,26.10
2018-05-25T08:31:44.908Z,26.00
2018-05-25T08:34:11.576Z,25.90
2018-05-25T08:36:38.134Z,25.80
2018-05-25T08:39:06.395Z,25.80
2018-05-25T08:41:33.144Z,25.80
2018-05-25T08:43:59.743Z,25.70
2018-05-25T08:46:26.448Z,25.90
2018-05-25T08:48:53.743Z,26.20
2018-05-25T08:51:20.274Z,26.10
2018-05-25T08:53:46.864Z,26.40
2018-05-25T08:56:14.226Z,26.30
2018-05-25T08:58:41.596Z,26.40
2018-05-25T09:01:08.149Z,26.40
2018-05-25T09:03:34.696Z,26.40
2018-05-25T09:06:01.632Z,26.50
2018-05-25T09:08:28.298Z,26.60
2018-05-25T09:10:55.607Z,26.30
2018-05-25T09:13:22.186Z,26.30
2018-05-25T09:15:48.752Z,26.40
2018-05-25T09:18:15.389Z,26.60
2018-05-25T09:20:42.687Z,26.70
2018-05-25T09:23:09.268Z,26.70
2018-05-25T09:25:35.865Z,26.90
2018-05-25T09:28:02.584Z,27.00
2018-05-25T09:30:29.162Z,27.00
2018-05-25T09:32:57.214Z,27.00
2018-05-25T09:35:23.867Z,27.00
2018-05-25T09:37:50.424Z,26.80
2018-05-25T09:40:17.930Z,27.10
2018-05-25T09:42:44.476Z,27.10
2018-05-25T09:45:11.045Z,27.00
2018-05-25T09:47:37.622Z,27.00
2018-05-25T09:50:04.682Z,27.90
2018-05-25T09:52:31.238Z,26.70
2018-05-25T09:54:58.720Z,26.20
2018-05-25T09:57:26.239Z,26.10
2018-05-25T09:59:52.812Z,26.10
2018-05-25T10:02:20.858Z,26.00
2018-05-25T10:04:47.437Z,26.00
2018-05-25T10:07:14.013Z,26.30
2018-05-25T10:09:40.623Z,26.50
2018-05-25T10:12:07.975Z,26.90
2018-05-25T10:14:35.247Z,26.80
2018-05-25T10:17:01.829Z,26.80
2018-05-25T10:19:28.373Z,26.80
2018-05-25T10:21:56.449Z,27.20
2018-05-25T10:24:23.007Z,27.20
2018-05-25T10:26:50.371Z,27.00
2018-05-25T10:29:16.945Z,27.00
2018-05-25T10:31:44.685Z,27.20
2018-05-25T10:34:11.221Z,27.10
2018-05-25T10:36:37.782Z,27.50
2018-05-25T10:39:05.294Z,27.20
2018-05-25T10:41:31.898Z,27.10
2018-05-25T10:43:58.490Z,27.30
2018-05-25T10:46:25.045Z,27.40
2018-05-25T10:48:51.702Z,27.20
2018-05-25T10:51:18.447Z,27.40
2018-05-25T10:53:45.018Z,27.70
2018-05-25T10:56:12.421Z,28.00
2018-05-25T10:58:38.970Z,28.00
2018-05-25T11:01:07.152Z,27.90
2018-05-25T11:03:34.481Z,27.90
2018-05-25T11:06:01.146Z,27.80
2018-05-25T11:08:28.496Z,28.10
2018-05-25T11:10:55.047Z,28.10
2018-05-25T11:13:22.739Z,28.40
2018-05-25T11:15:49.244Z,28.40
2018-05-25T11:18:16.574Z,28.30
2018-05-25T11:20:43.936Z,28.40
2018-05-25T11:23:11.237Z,28.40
2018-05-25T11:25:37.835Z,28.40
2018-05-25T11:28:04.402Z,28.40
2018-05-25T11:30:30.986Z,28.50
2018-05-25T11:32:58.283Z,28.00
2018-05-25T11:35:25.034Z,28.00
2018-05-25T11:37:51.575Z,27.90
2018-05-25T11:40:18.125Z,27.90
2018-05-25T11:42:44.691Z,28.10
2018-05-25T11:45:11.252Z,28.40
2018-05-25T11:47:38.588Z,28.70
2018-05-25T11:50:05.134Z,28.70
2018-05-25T11:52:31.756Z,28.80
2018-05-25T11:54:58.287Z,28.70
2018-05-25T11:57:24.848Z,28.60
2018-05-25T11:59:52.194Z,28.60
2018-05-25T12:02:18.782Z,28.60
2018-05-25T12:04:45.339Z,28.90
2018-05-25T12:07:11.929Z,28.70
2018-05-25T12:09:39.247Z,28.20
2018-05-25T12:12:05.837Z,28.10
2018-05-25T12:14:32.398Z,27.90
2018-05-25T12:16:59.014Z,27.70
2018-05-25T12:19:25.607Z,27.70
2018-05-25T12:21:52.190Z,27.80
2018-05-25T12:24:18.750Z,27.80
2018-05-25T12:26:45.356Z,28.00
2018-05-25T12:29:11.938Z,27.90
2018-05-25T12:31:38.554Z,27.80
2018-05-25T12:34:05.315Z,28.10
2018-05-25T12:36:31.867Z,28.10
2018-05-25T12:38:59.156Z,28.00
2018-05-25T12:41:25.846Z,28.00
2018-05-25T12:43:52.423Z,27.80
2018-05-25T12:46:18.985Z,27.70
2018-05-25T12:48:45.679Z,27.70
2018-05-25T12:51:12.970Z,27.50
2018-05-25T12:53:39.501Z,27.40
2018-05-25T12:56:06.446Z,27.30
2018-05-25T12:58:32.988Z,27.00
2018-05-25T13:00:59.647Z,26.80
2018-05-25T13:03:26.175Z,26.80
2018-05-25T13:05:52.775Z,26.60
2018-05-25T13:08:19.344Z,26.80
2018-05-25T13:10:45.928Z,26.80
2018-05-25T13:13:13.329Z,27.40
2018-05-25T13:15:39.886Z,27.40
2018-05-25T13:18:06.458Z,27.40
2018-05-25T13:20:33.068Z,27.40
2018-05-25T13:22:59.732Z,27.60
2018-05-25T13:25:27.510Z,27.80
2018-05-25T13:27:54.064Z,27.80
2018-05-25T13:30:20.665Z,28.30
2018-05-25T13:32:47.449Z,28.50
2018-05-25T13:35:14.049Z,28.80
2018-05-25T13:37:41.331Z,29.30
2018-05-25T13:40:08.370Z,29.30
2018-05-25T13:42:34.898Z,29.50
2018-05-25T13:45:01.455Z,29.60
2018-05-25T13:47:28.086Z,29.70
2018-05-25T13:49:54.621Z,29.80
2018-05-25T13:52:21.199Z,29.80
2018-05-25T13:54:47.746Z,29.70
2018-05-25T13:57:15.815Z,29.80
2018-05-25T13:59:42.413Z,29.80
2018-05-25T14:02:08.959Z,30.00
2018-05-25T14:04:35.962Z,30.30
2018-05-25T14:07:02.661Z,30.40
2018-05-25T14:09:29.270Z,30.50
2018-05-25T14:11:55.819Z,30.60
2018-05-25T14:14:22.542Z,30.50
2018-05-25T14:16:49.137Z,30.20
2018-05-25T14:19:16.454Z,29.90
2018-05-25T14:21:43.203Z,29.90
2018-05-25T14:24:09.764Z,29.60
2018-05-25T14:26:37.047Z,29.20
2018-05-25T14:29:03.643Z,29.10
2018-05-25T14:31:30.268Z,29.10
2018-05-25T14:33:56.794Z,28.90
2018-05-25T14:36:23.378Z,28.90
2018-05-25T14:38:50.700Z,28.80
2018-05-25T14:41:17.298Z,28.80
2018-05-25T14:43:43.898Z,28.80
2018-05-25T14:46:11.196Z,28.60
2018-05-25T14:48:37.798Z,28.60
2018-05-25T14:51:04.353Z,28.50
2018-05-25T14:53:30.941Z,28.50
2018-05-25T14:55:57.526Z,28.20
2018-05-25T14:58:24.134Z,28.20
2018-05-25T15:00:50.683Z,28.10
2018-05-25T15:03:17.214Z,27.90
2018-05-25T15:05:44.279Z,27.90
2018-05-25T15:08:10.839Z,27.80
2018-05-25T15:10:39.054Z,27.70
2018-05-25T15:13:06.594Z,27.70
2018-05-25T15:15:33.120Z,27.70
2018-05-25T15:17:59.691Z,27.80
2018-05-25T15:20:26.292Z,27.70
2018-05-25T15:22:52.859Z,27.60
2018-05-25T15:25:20.164Z,27.40
2018-05-25T15:27:47.539Z,27.40
2018-05-25T15:30:14.993Z,27.50
2018-05-25T15:32:41.695Z,27.50
2018-05-25T15:35:08.317Z,27.60
2018-05-25T15:37:34.795Z,27.70
2018-05-25T15:40:01.385Z,27.80
2018-05-25T15:42:27.968Z,27.60
2018-05-25T15:44:55.195Z,27.70
2018-05-25T15:47:21.760Z,27.60
2018-05-25T15:49:48.342Z,27.70
2018-05-25T15:52:15.636Z,27.60
2018-05-25T15:54:42.933Z,27.50
2018-05-25T15:57:09.573Z,27.50
2018-05-25T15:59:36.091Z,27.50
2018-05-25T16:02:03.415Z,27.50
2018-05-25T16:04:30.657Z,27.50
2018-05-25T16:06:57.241Z,27.50
2018-05-25T16:09:23.744Z,27.50
2018-05-25T16:11:51.036Z,27.40
2018-05-25T16:14:18.357Z,27.40
2018-05-25T16:16:44.965Z,27.40
2018-05-25T16:19:11.486Z,27.30
2018-05-25T16:21:39.598Z,27.20
2018-05-25T16:24:06.680Z,27.20
2018-05-25T16:26:33.319Z,27.10
2018-05-25T16:29:00.628Z,27.00
2018-05-25T16:31:28.040Z,26.90
2018-05-25T16:33:54.541Z,26.90
2018-05-25T16:36:21.097Z,26.90
2018-05-25T16:38:47.970Z,26.90
2018-05-25T16:41:15.919Z,26.80
2018-05-25T16:43:42.406Z,26.80
2018-05-25T16:46:09.716Z,26.70
2018-05-25T16:48:37.679Z,26.70
2018-05-25T16:51:04.217Z,26.70
2018-05-25T16:53:30.951Z,26.60
2018-05-25T16:55:57.513Z,26.60
2018-05-25T16:58:24.933Z,26.60
2018-05-25T17:00:51.462Z,26.60
2018-05-25T17:03:17.960Z,26.50
2018-05-25T17:05:44.873Z,26.50
2018-05-25T17:08:11.394Z,26.40
2018-05-25T17:10:37.882Z,26.40
2018-05-25T17:13:04.587Z,25.30
2018-05-25T17:15:32.574Z,26.30
2018-05-25T17:17:59.142Z,26.30
2018-05-25T17:20:26.085Z,26.30
2018-05-25T17:22:52.618Z,26.30
2018-05-25T17:25:19.189Z,26.30
2018-05-25T17:27:45.737Z,26.30
2018-05-25T17:30:13.793Z,26.20
2018-05-25T17:32:40.299Z,26.20
2018-05-25T17:35:06.801Z,26.10
2018-05-25T17:37:34.045Z,26.00
2018-05-25T17:40:00.593Z,26.00
2018-05-25T17:42:27.991Z,25.90
2018-05-25T17:44:54.502Z,25.80
2018-05-25T17:47:21.164Z,25.80
2018-05-25T17:49:47.901Z,25.70
2018-05-25T17:52:14.398Z,25.70
2018-05-25T17:54:42.985Z,25.50
2018-05-25T17:57:09.506Z,25.50
2018-05-25T17:59:36.751Z,25.30
2018-05-25T18:02:03.759Z,25.30
2018-05-25T18:04:31.046Z,25.20
2018-05-25T18:06:57.565Z,25.10
2018-05-25T18:09:25.638Z,25.00
2018-05-25T18:11:52.263Z,25.00
2018-05-25T18:14:18.775Z,24.90
2018-05-25T18:16:45.527Z,24.80
2018-05-25T18:19:12.045Z,26.00
2018-05-25T18:21:38.721Z,24.70
2018-05-25T18:24:05.243Z,24.60
2018-05-25T18:26:31.763Z,24.50
2018-05-25T18:28:58.380Z,24.40
2018-05-25T18:31:24.901Z,24.40
2018-05-25T18:33:52.241Z,24.30
2018-05-25T18:36:19.465Z,24.20
2018-05-25T18:38:45.970Z,24.20
2018-05-25T18:41:12.514Z,24.10
2018-05-25T18:43:39.049Z,24.00
2018-05-25T18:46:05.689Z,23.90
2018-05-25T18:48:32.213Z,23.80
2018-05-25T18:50:58.884Z,23.80
2018-05-25T18:53:25.380Z,23.70
2018-05-25T18:55:51.847Z,23.60
2018-05-25T18:58:18.436Z,23.60
2018-05-25T19:00:44.930Z,23.50
2018-05-25T19:03:11.420Z,23.40
2018-05-25T19:05:38.006Z,23.40
2018-05-25T19:08:04.546Z,23.30
2018-05-25T19:10:31.142Z,23.30
2018-05-25T19:12:57.668Z,23.30
2018-05-25T19:15:24.202Z,23.30
2018-05-25T19:17:50.696Z,23.30
2018-05-25T19:20:17.976Z,23.10
2018-05-25T19:22:44.553Z,23.10
2018-05-25T19:25:11.016Z,23.00
2018-05-25T19:27:38.320Z,22.90
2018-05-25T19:30:04.882Z,22.90
2018-05-25T19:32:31.403Z,22.80
2018-05-25T19:34:57.899Z,22.80
2018-05-25T19:37:24.449Z,22.70
2018-05-25T19:39:50.991Z,22.60
2018-05-25T19:42:18.283Z,22.50
2018-05-25T19:44:45.558Z,22.50
2018-05-25T19:47:12.793Z,22.40
2018-05-25T19:49:39.354Z,22.40
2018-05-25T19:52:05.881Z,22.40
2018-05-25T19:54:33.102Z,22.30
2018-05-25T19:56:59.661Z,22.20
2018-05-25T19:59:26.197Z,22.20
2018-05-25T20:01:53.425Z,22.00
2018-05-25T20:04:20.954Z,22.00
2018-05-25T20:06:48.245Z,21.90
2018-05-25T20:09:14.763Z,21.90
2018-05-25T20:11:41.345Z,21.90
2018-05-25T20:14:09.065Z,21.80
2018-05-25T20:16:35.585Z,21.80
2018-05-25T20:19:02.129Z,21.70
2018-05-25T20:21:28.729Z,21.70
2018-05-25T20:23:55.257Z,21.70
2018-05-25T20:26:21.745Z,21.60
2018-05-25T20:28:48.244Z,21.60
2018-05-25T20:31:14.912Z,21.50
2018-05-25T20:33:41.378Z,21.50
2018-05-25T20:36:08.647Z,21.40
2018-05-25T20:38:35.167Z,21.40
2018-05-25T20:41:02.406Z,21.30
2018-05-25T20:43:30.125Z,21.30
2018-05-25T20:45:56.598Z,21.30
2018-05-25T20:48:23.849Z,21.10
2018-05-25T20:50:50.592Z,21.10
2018-05-25T20:53:17.810Z,21.00
2018-05-25T20:55:44.337Z,20.90
2018-05-25T20:58:10.853Z,20.90
2018-05-25T21:00:37.339Z,20.80
2018-05-25T21:03:03.878Z,20.70
2018-05-25T21:05:30.350Z,20.60
2018-05-25T21:07:56.866Z,20.50
2018-05-25T21:10:24.085Z,20.30
2018-05-25T21:12:50.616Z,20.30
2018-05-25T21:15:17.107Z,20.20
2018-05-25T21:17:43.633Z,20.10
2018-05-25T21:20:10.226Z,20.10
2018-05-25T21:22:36.700Z,20.00
2018-05-25T21:25:03.254Z,20.00
2018-05-25T21:27:29.810Z,19.90
2018-05-25T21:29:56.781Z,19.80
2018-05-25T21:32:23.329Z,19.70
2018-05-25T21:34:49.811Z,19.60
2018-05-25T21:37:16.425Z,19.50
2018-05-25T21:39:43.414Z,19.50
2018-05-25T21:42:09.922Z,19.40
2018-05-25T21:44:36.417Z,19.30
2018-05-25T21:47:03.685Z,19.20
2018-05-25T21:49:31.285Z,19.10
2018-05-25T21:51:57.812Z,19.10
2018-05-25T21:54:24.320Z,19.10
2018-05-25T21:56:51.518Z,19.00
2018-05-25T21:59:18.092Z,19.00
2018-05-25T22:01:45.319Z,18.90
2018-05-25T22:04:11.902Z,18.80
2018-05-25T22:06:38.416Z,18.80
2018-05-25T22:09:05.448Z,18.80
2018-05-25T22:11:31.986Z,18.80
2018-05-25T22:13:59.230Z,18.70
2018-05-25T22:16:25.826Z,18.60
2018-05-25T22:18:52.322Z,18.60
2018-05-25T22:21:19.540Z,18.50
2018-05-25T22:23:46.291Z,18.50
2018-05-25T22:26:12.857Z,18.50
2018-05-25T22:28:39.342Z,18.40
2018-05-25T22:31:06.377Z,18.40
2018-05-25T22:33:32.881Z,18.30
2018-05-25T22:35:59.385Z,18.30
2018-05-25T22:38:26.815Z,18.10
2018-05-25T22:40:53.305Z,18.10
2018-05-25T22:43:32.057Z,18.00
2018-05-25T22:46:17.202Z,18.00
2018-05-25T22:49:03.146Z,17.80
2018-05-25T22:51:48.169Z,17.80
2018-05-25T22:54:27.354Z,17.80
2018-05-25T22:56:53.953Z,17.70
2018-05-25T22:59:21.245Z,17.60
2018-05-25T23:01:47.844Z,17.60
2018-05-25T23:04:14.424Z,17.50
2018-05-25T23:06:40.975Z,17.50
2018-05-25T23:09:07.623Z,17.50
2018-05-25T23:11:34.640Z,17.40
2018-05-25T23:14:01.206Z,17.40
2018-05-25T23:16:27.759Z,17.30
2018-05-25T23:18:54.316Z,17.30
2018-05-25T23:21:20.875Z,17.30
2018-05-25T23:23:47.913Z,17.20
2018-05-25T23:26:14.497Z,17.20
2018-05-25T23:28:41.274Z,17.20
2018-05-25T23:31:08.577Z,17.10
2018-05-25T23:33:36.618Z,17.00
2018-05-25T23:36:03.241Z,17.00
2018-05-25T23:38:29.778Z,16.90
2018-05-25T23:40:56.343Z,16.90
2018-05-25T23:43:22.910Z,16.80
2018-05-25T23:45:49.444Z,16.80
2018-05-25T23:48:16.137Z,16.70
2018-05-25T23:50:42.698Z,16.70
2018-05-25T23:53:09.253Z,16.70
2018-05-25T23:55:35.837Z,16.60
2018-05-25T23:58:02.440Z,16.60
